C13LL CYXU-CYXU
Flight info
| Callsign | C13LL |
|---|---|
| Flight time | 0h 2m |
| Altitude | |
| Route | |
| Aircraft | PA28 |
Departure
| Time | 2026-04-30 01:39 |
|---|---|
| Airport | London International Airport (CYXU) |
Arrival
| Time | 2026-04-30 01:42 |
|---|---|
| Airport | London International Airport (CYXU) |
| Time | Latitude | Longitude | Altitude | Speed | Heading |
|---|---|---|---|---|---|
| 2026-04-30 01:33 | 43.02795 | -81.14723 | 898 ft | 0 kts | 235° |
| 2026-04-30 01:36 | 43.02791 | -81.14715 | 898 ft | 7 kts | 75° |
| 2026-04-30 01:36 | 43.02790 | -81.14593 | 897 ft | 18 kts | 136° |
| 2026-04-30 01:36 | 43.02692 | -81.14475 | 900 ft | 19 kts | 139° |
| 2026-04-30 01:36 | 43.02582 | -81.14346 | 897 ft | 22 kts | 137° |
| 2026-04-30 01:37 | 43.02462 | -81.14205 | 896 ft | 24 kts | 140° |
| 2026-04-30 01:37 | 43.02346 | -81.14059 | 894 ft | 19 kts | 136° |
| 2026-04-30 01:37 | 43.02330 | -81.13945 | 893 ft | 11 kts | 47° |
| 2026-04-30 01:37 | 43.02342 | -81.13926 | 893 ft | 0 kts | 48° |
| 2026-04-30 01:38 | 43.02356 | -81.13909 | 892 ft | 15 kts | 43° |
| 2026-04-30 01:38 | 43.02464 | -81.13887 | 894 ft | 17 kts | 320° |
| 2026-04-30 01:38 | 43.02707 | -81.14176 | 910 ft | 73 kts | 318° |
| 2026-04-30 01:39 | 43.03162 | -81.14710 | 1045 ft | 99 kts | 317° |
| 2026-04-30 01:39 | 43.03722 | -81.15380 | 1243 ft | 112 kts | 320° |
| 2026-04-30 01:39 | 43.04326 | -81.16060 | 1535 ft | 110 kts | 322° |
| 2026-04-30 01:39 | 43.05033 | -81.16148 | 1857 ft | 107 kts | 26° |
| 2026-04-30 01:40 | 43.05350 | -81.15197 | 1919 ft | 128 kts | 92° |
| 2026-04-30 01:40 | 43.04806 | -81.14166 | 1925 ft | 141 kts | 141° |
| 2026-04-30 01:40 | 43.04033 | -81.13409 | 2120 ft | 134 kts | 142° |
| 2026-04-30 01:40 | 43.03306 | -81.12662 | 2271 ft | 123 kts | 141° |
| 2026-04-30 01:41 | 43.02697 | -81.12081 | 2377 ft | 98 kts | 146° |
| 2026-04-30 01:41 | 43.02043 | -81.12051 | 2194 ft | 105 kts | 217° |
| 2026-04-30 01:41 | 43.01886 | -81.12928 | 1618 ft | 97 kts | 290° |
| 2026-04-30 01:41 | 43.02273 | -81.13658 | 1047 ft | 89 kts | 317° |
| 2026-04-30 01:42 | 43.02676 | -81.14141 | 910 ft | 63 kts | 316° |
| 2026-04-30 01:42 | 43.02949 | -81.14468 | 900 ft | 45 kts | 316° |
| 2026-04-30 01:42 | 43.03239 | -81.14806 | 1016 ft | 61 kts | 318° |
| 2026-04-30 01:42 | 43.03582 | -81.15148 | 1331 ft | 58 kts | 323° |
| 2026-04-30 01:43 | 43.03885 | -81.15512 | 1653 ft | 61 kts | 316° |
| 2026-04-30 01:43 | 43.04208 | -81.15973 | 1864 ft | 79 kts | 315° |
| 2026-04-30 01:43 | 43.04688 | -81.16469 | 1972 ft | 93 kts | 343° |
| 2026-04-30 01:43 | 43.05305 | -81.16228 | 2119 ft | 104 kts | 46° |
| 2026-04-30 01:44 | 43.05398 | -81.15194 | 2174 ft | 123 kts | 103° |
| 2026-04-30 01:44 | 43.04879 | -81.14316 | 2183 ft | 116 kts | 136° |
| 2026-04-30 01:44 | 43.04260 | -81.13668 | 2198 ft | 110 kts | 140° |
| 2026-04-30 01:44 | 43.03655 | -81.13090 | 2241 ft | 104 kts | 142° |
| 2026-04-30 01:45 | 43.03070 | -81.12554 | 2274 ft | 93 kts | 144° |
| 2026-04-30 01:45 | 43.02520 | -81.12148 | 2194 ft | 94 kts | 163° |
| 2026-04-30 01:45 | 43.01932 | -81.12400 | 1914 ft | 94 kts | 235° |
| 2026-04-30 01:45 | 43.01982 | -81.13225 | 1256 ft | 94 kts | 299° |
| 2026-04-30 01:46 | 43.02392 | -81.13782 | 962 ft | 74 kts | 302° |
| 2026-04-30 01:46 | 43.02721 | -81.14191 | 907 ft | 53 kts | 313° |
| 2026-04-30 01:46 | 43.02961 | -81.14490 | 904 ft | 52 kts | 317° |
| 2026-04-30 01:46 | 43.03284 | -81.14863 | 1125 ft | 65 kts | 317° |
| 2026-04-30 01:47 | 43.03623 | -81.15287 | 1414 ft | 70 kts | 314° |
| 2026-04-30 01:47 | 43.03968 | -81.15821 | 1710 ft | 81 kts | 314° |
| 2026-04-30 01:47 | 43.04370 | -81.16417 | 1999 ft | 88 kts | 323° |
| 2026-04-30 01:47 | 43.04975 | -81.16538 | 2114 ft | 99 kts | 20° |
| 2026-04-30 01:48 | 43.05417 | -81.15746 | 2124 ft | 117 kts | 72° |
| 2026-04-30 01:48 | 43.05202 | -81.14650 | 2187 ft | 129 kts | 126° |
| 2026-04-30 01:48 | 43.04501 | -81.13899 | 2270 ft | 126 kts | 142° |
| 2026-04-30 01:48 | 43.03782 | -81.13243 | 2279 ft | 127 kts | 145° |
| 2026-04-30 01:49 | 43.03057 | -81.12628 | 2347 ft | 122 kts | 147° |
| 2026-04-30 01:49 | 43.02376 | -81.12046 | 2409 ft | 100 kts | 147° |
| 2026-04-30 01:49 | 43.01692 | -81.11976 | 2133 ft | 106 kts | 194° |
| 2026-04-30 01:49 | 43.01408 | -81.12771 | 1346 ft | 105 kts | 296° |
| 2026-04-30 01:50 | 43.01958 | -81.13313 | 1095 ft | 82 kts | 327° |
| 2026-04-30 01:50 | 43.02339 | -81.13741 | 974 ft | 64 kts | 316° |
| 2026-04-30 01:50 | 43.02647 | -81.14106 | 901 ft | 51 kts | 315° |
| 2026-04-30 01:50 | 43.02932 | -81.14447 | 979 ft | 66 kts | 316° |
| 2026-04-30 01:51 | 43.03283 | -81.14884 | 1268 ft | 70 kts | 315° |
| 2026-04-30 01:51 | 43.03649 | -81.15391 | 1536 ft | 80 kts | 315° |
| 2026-04-30 01:51 | 43.04040 | -81.15967 | 1882 ft | 86 kts | 316° |
| 2026-04-30 01:51 | 43.04533 | -81.16446 | 2057 ft | 92 kts | 349° |
| 2026-04-30 01:52 | 43.05152 | -81.16155 | 2110 ft | 103 kts | 40° |
| 2026-04-30 01:52 | 43.05433 | -81.15222 | 2133 ft | 112 kts | 82° |
| 2026-04-30 01:52 | 43.05214 | -81.14177 | 2167 ft | 121 kts | 118° |
| 2026-04-30 01:52 | 43.04570 | -81.13420 | 2196 ft | 121 kts | 146° |
| 2026-04-30 01:53 | 43.03851 | -81.12873 | 2229 ft | 114 kts | 146° |
| 2026-04-30 01:53 | 43.03200 | -81.12356 | 2195 ft | 102 kts | 147° |
| 2026-04-30 01:53 | 43.02570 | -81.12117 | 1969 ft | 97 kts | 172° |
| 2026-04-30 01:53 | 43.02040 | -81.12623 | 1455 ft | 96 kts | 245° |
| 2026-04-30 01:54 | 43.02180 | -81.13443 | 1088 ft | 86 kts | 290° |
| 2026-04-30 01:54 | 43.02543 | -81.13974 | 919 ft | 66 kts | 315° |
| 2026-04-30 01:54 | 43.02828 | -81.14322 | 902 ft | 37 kts | 317° |
| 2026-04-30 01:54 | 43.02946 | -81.14508 | 899 ft | 20 kts | 280° |
| 2026-04-30 01:55 | 43.02924 | -81.14601 | 897 ft | 5 kts | 231° |
| 2026-04-30 01:55 | 43.02923 | -81.14602 | 897 ft | 0 kts | 230° |
| 2026-04-30 01:57 | 43.02901 | -81.14643 | 897 ft | 14 kts | 234° |
| 2026-04-30 01:57 | 43.02870 | -81.14733 | 898 ft | 10 kts | 231° |
| 2026-04-30 01:57 | 43.02850 | -81.14773 | 898 ft | 4 kts | 280° |
| 2026-04-30 01:57 | 43.02851 | -81.14777 | 898 ft | 0 kts | 282° |